Utilizamos cookies propias y de terceros para ofrecer nuestros servicios, recoger información estadística e incluir publicidad. Si continua navegando acepta su instalación y uso. Puede cambiar la configuración u obtener más información en nuestra ACEPTAR | Más información

 INFORMACIÓN METAR y TAF
METAR FOR LEVD
ADDS - METARS form results

(0628 UTC 21 October 2019)
Data provider http://aviationweather.gov/metar/data/
 
METAR text: LEVD 210600Z 13004KT 0300 R23/0325N R05/0375N FG VV001 03/03 Q1017
Conditions at: LEVD (VALLADOLID(MIL/C, ES) observed 0600 UTC 21 October 2019
Temperature: 3.0°C (37°F)
Dewpoint: 3.0°C (37°F) [RH = 100%]
Pressure (altimeter): 30.03 inches Hg (1017.0 mb)
Winds: from the SE (130 degrees) at 5 MPH (4 knots; 2.1 m/s)
Visibility: 0.19 miles (0.31 km)
Ceiling: indefinite ceiling with vertical visibility of 100 feet AGL
Clouds: obscured sky
Weather: FG  (fog)

METAR text: LEVD 210545Z 12005KT 0500 R23/0500D R05/0650D FG VV001 03/02 Q1017
Conditions at: LEVD (VALLADOLID(MIL/C, ES) observed 0545 UTC 21 October 2019
Temperature: 3.0°C (37°F)
Dewpoint: 2.0°C (36°F) [RH = 93%]
Pressure (altimeter): 30.03 inches Hg (1017.0 mb)
Winds: from the ESE (120 degrees) at 6 MPH (5 knots; 2.6 m/s)
Visibility: 0.31 miles (0.50 km)
Ceiling: indefinite ceiling with vertical visibility of 100 feet AGL
Clouds: obscured sky
Weather: FG  (fog)

METAR text: LEVD 210530Z VRB01KT 0600 R23/1800D R05/1500D FG SCT003 01/01 Q1017
Conditions at: LEVD (VALLADOLID(MIL/C, ES) observed 0530 UTC 21 October 2019
Temperature: 1.0°C (34°F)
Dewpoint: 1.0°C (34°F) [RH = 100%]
Pressure (altimeter): 30.03 inches Hg (1017.0 mb)
Winds: variable direction winds at 1 MPH (1 knots; 0.5 m/s)
Visibility: 0.37 miles (0.60 km)
Ceiling: at least 12,000 feet AGL
Clouds: scattered clouds at 300 feet AGL
Weather: FG  (fog)

Forecast for: LEVD (VALLADOLID(MIL/C, ES)
Text: TAF LEVD 210500Z 2106/2206 VRB04KT 1500 BCFG SCT003 TX13/2115Z TN01/2106Z
Forecast period: 0600 to 0900 UTC 21 October 2019
Forecast type: FROM: standard forecast or significant change
Winds: variable direction winds at 5 MPH (4 knots; 2.1 m/s)
Visibility: 0.93 miles (1.50 km)
Ceiling: at least 12,000 feet AGL
Clouds: scattered clouds at 300 feet AGL
Weather: BCFG  (patches of fog)
Text: TEMPO 2106/2110 0300 FG OVC001
Forecast period: 0600 to 1000 UTC 21 October 2019
Forecast type: TEMPORARY: The following changes expected for less than half the time period
Visibility: 0.19 miles (0.31 km)
Ceiling: 100 feet AGL
Clouds: overcast cloud deck at 100 feet AGL
Weather: FG  (fog)
Text: BECMG 2109/2111 8000 NSW
Forecast period: 0900 UTC 21 October 2019 to 0600 UTC 22 October 2019
Forecast type: BECOMING: Conditions expected to become as follows by 1100 UTC 21 October 2019
Winds: variable direction winds at 5 MPH (4 knots; 2.1 m/s)
Visibility: 5 miles (8 km)
Ceiling: at least 12,000 feet AGL
Clouds: scattered clouds at 300 feet AGL
Weather: NSW  (no significant weather)
Text: PROB40
Forecast period: 1500 to 1900 UTC 21 October 2019
Forecast type: TEMPORARY: The following changes expected for less than half the time period
Visibility: missing
Ceiling: at least 12,000 feet AGL
Clouds: scattered clouds at 2500 feet AGL
Weather: no significant weather forecast for this period

 MAPA DE AEROPUERTO

 INFORMACIÓN DE PISTA
Pista 05 Longitud 9843 ft Ancho 197 ft
Elevación 2768 ft Umbral desplazado 0 ft Rumbo de pista 45
Pista 23 Longitud 9843 ft Ancho 197 ft
Elevación 2775 ft Umbral desplazado 0 ft Rumbo de pista 225
Pista 15 Longitud 2976 ft Ancho 197 ft
Elevación 2770 ft Umbral desplazado 0 ft Rumbo de pista 144
Pista 33 Longitud 2976 ft Ancho 197 ft
Elevación 2771 ft Umbral desplazado 0 ft Rumbo de pista 324

 FRECUANCIAS DEL AEROPUERTO
Tipo TWR Nombre TWR Frecuencia 122.2 MHZ

 RADIO AYUDAS DEL AEROPUERTO
Tipo TACAN Nombre Valladolid Frecuencia 108200 KHZ
Tipo NDB Nombre Valladolid Frecuencia 342 KHZ

© Todos los derechos reservados. Aviso Legal | Política de Privacidad | Política de cookies |